sensor_id;sensor_type;location;lat;lon;timestamp;P1;durP1;ratioP1;P2;durP2;ratioP2
57635;SDS011;43465;50.728;4.160;2023-11-18T00:00:57;23.45;;;14.88;;
57635;SDS011;43465;50.728;4.160;2023-11-18T00:03:23;23.55;;;14.00;;
57635;SDS011;43465;50.728;4.160;2023-11-18T00:05:49;21.73;;;13.63;;
57635;SDS011;43465;50.728;4.160;2023-11-18T00:08:15;20.83;;;13.90;;
57635;SDS011;43465;50.728;4.160;2023-11-18T00:10:41;22.95;;;14.15;;
57635;SDS011;43465;50.728;4.160;2023-11-18T00:13:06;24.80;;;14.10;;
57635;SDS011;43465;50.728;4.160;2023-11-18T00:15:33;21.30;;;12.82;;
57635;SDS011;43465;50.728;4.160;2023-11-18T00:18:00;18.75;;;14.05;;
57635;SDS011;43465;50.728;4.160;2023-11-18T00:20:26;23.13;;;13.63;;
57635;SDS011;43465;50.728;4.160;2023-11-18T00:22:51;23.33;;;13.32;;
57635;SDS011;43465;50.728;4.160;2023-11-18T00:25:18;21.08;;;11.95;;
57635;SDS011;43465;50.728;4.160;2023-11-18T00:27:43;18.05;;;12.30;;
57635;SDS011;43465;50.728;4.160;2023-11-18T00:30:09;23.85;;;13.07;;
57635;SDS011;43465;50.728;4.160;2023-11-18T00:32:38;19.25;;;12.38;;
57635;SDS011;43465;50.728;4.160;2023-11-18T00:35:04;21.38;;;12.45;;
57635;SDS011;43465;50.728;4.160;2023-11-18T00:37:31;20.90;;;12.15;;
57635;SDS011;43465;50.728;4.160;2023-11-18T00:39:57;21.20;;;12.10;;
57635;SDS011;43465;50.728;4.160;2023-11-18T00:42:22;16.85;;;11.13;;
57635;SDS011;43465;50.728;4.160;2023-11-18T00:44:48;20.50;;;11.57;;
57635;SDS011;43465;50.728;4.160;2023-11-18T00:47:14;16.65;;;10.73;;
57635;SDS011;43465;50.728;4.160;2023-11-18T00:49:39;15.48;;;11.15;;
57635;SDS011;43465;50.728;4.160;2023-11-18T00:52:05;20.80;;;11.70;;
57635;SDS011;43465;50.728;4.160;2023-11-18T00:54:31;16.80;;;10.48;;
57635;SDS011;43465;50.728;4.160;2023-11-18T00:56:57;19.92;;;11.15;;
57635;SDS011;43465;50.728;4.160;2023-11-18T00:59:22;18.90;;;9.93;;
57635;SDS011;43465;50.728;4.160;2023-11-18T01:01:48;15.35;;;9.73;;
57635;SDS011;43465;50.728;4.160;2023-11-18T01:04:14;22.02;;;9.27;;
57635;SDS011;43465;50.728;4.160;2023-11-18T01:06:40;14.02;;;8.82;;
57635;SDS011;43465;50.728;4.160;2023-11-18T01:09:07;19.45;;;10.07;;
57635;SDS011;43465;50.728;4.160;2023-11-18T01:11:34;16.15;;;9.15;;
57635;SDS011;43465;50.728;4.160;2023-11-18T01:14:00;13.55;;;9.05;;
57635;SDS011;43465;50.728;4.160;2023-11-18T01:16:27;12.02;;;8.82;;
57635;SDS011;43465;50.728;4.160;2023-11-18T01:18:53;15.40;;;8.93;;
57635;SDS011;43465;50.728;4.160;2023-11-18T01:21:19;17.25;;;8.68;;
57635;SDS011;43465;50.728;4.160;2023-11-18T01:23:45;11.70;;;7.68;;
57635;SDS011;43465;50.728;4.160;2023-11-18T01:26:11;16.65;;;8.07;;
57635;SDS011;43465;50.728;4.160;2023-11-18T01:28:40;15.50;;;7.82;;
57635;SDS011;43465;50.728;4.160;2023-11-18T01:31:10;18.60;;;7.85;;
57635;SDS011;43465;50.728;4.160;2023-11-18T01:33:37;15.68;;;8.10;;
57635;SDS011;43465;50.728;4.160;2023-11-18T01:36:05;17.08;;;7.57;;
57635;SDS011;43465;50.728;4.160;2023-11-18T01:38:31;20.10;;;7.80;;
57635;SDS011;43465;50.728;4.160;2023-11-18T01:40:57;14.02;;;7.22;;
57635;SDS011;43465;50.728;4.160;2023-11-18T01:43:22;12.30;;;6.18;;
57635;SDS011;43465;50.728;4.160;2023-11-18T01:45:48;11.77;;;6.20;;
57635;SDS011;43465;50.728;4.160;2023-11-18T01:48:14;13.95;;;6.30;;
57635;SDS011;43465;50.728;4.160;2023-11-18T01:50:43;15.68;;;6.30;;
57635;SDS011;43465;50.728;4.160;2023-11-18T01:53:12;18.00;;;6.73;;
57635;SDS011;43465;50.728;4.160;2023-11-18T01:55:42;11.88;;;5.25;;
57635;SDS011;43465;50.728;4.160;2023-11-18T01:58:07;11.85;;;6.03;;
57635;SDS011;43465;50.728;4.160;2023-11-18T02:00:36;13.80;;;6.25;;
57635;SDS011;43465;50.728;4.160;2023-11-18T02:03:05;14.98;;;6.13;;
57635;SDS011;43465;50.728;4.160;2023-11-18T02:05:31;17.00;;;5.65;;
57635;SDS011;43465;50.728;4.160;2023-11-18T02:08:00;12.80;;;5.45;;
57635;SDS011;43465;50.728;4.160;2023-11-18T02:10:29;14.55;;;5.90;;
57635;SDS011;43465;50.728;4.160;2023-11-18T02:13:18;10.48;;;5.68;;
57635;SDS011;43465;50.728;4.160;2023-11-18T02:15:50;12.57;;;5.60;;
57635;SDS011;43465;50.728;4.160;2023-11-18T02:18:19;18.58;;;6.00;;
57635;SDS011;43465;50.728;4.160;2023-11-18T02:20:46;18.33;;;5.95;;
57635;SDS011;43465;50.728;4.160;2023-11-18T02:23:13;11.88;;;5.50;;
57635;SDS011;43465;50.728;4.160;2023-11-18T02:25:48;11.13;;;5.05;;
57635;SDS011;43465;50.728;4.160;2023-11-18T02:28:14;16.08;;;5.72;;
57635;SDS011;43465;50.728;4.160;2023-11-18T02:30:40;15.40;;;5.22;;
57635;SDS011;43465;50.728;4.160;2023-11-18T02:33:10;10.80;;;5.18;;
57635;SDS011;43465;50.728;4.160;2023-11-18T02:35:51;13.02;;;4.90;;
57635;SDS011;43465;50.728;4.160;2023-11-18T02:38:19;11.82;;;4.25;;
57635;SDS011;43465;50.728;4.160;2023-11-18T02:40:52;22.83;;;4.60;;
57635;SDS011;43465;50.728;4.160;2023-11-18T02:43:21;13.10;;;4.32;;
57635;SDS011;43465;50.728;4.160;2023-11-18T02:45:49;9.82;;;3.58;;
57635;SDS011;43465;50.728;4.160;2023-11-18T02:48:16;11.23;;;3.97;;
57635;SDS011;43465;50.728;4.160;2023-11-18T02:50:43;12.57;;;4.18;;
57635;SDS011;43465;50.728;4.160;2023-11-18T02:53:09;8.57;;;4.07;;
57635;SDS011;43465;50.728;4.160;2023-11-18T02:55:34;9.65;;;3.80;;
57635;SDS011;43465;50.728;4.160;2023-11-18T02:58:00;15.48;;;4.40;;
57635;SDS011;43465;50.728;4.160;2023-11-18T03:00:27;8.65;;;3.95;;
57635;SDS011;43465;50.728;4.160;2023-11-18T03:02:53;11.55;;;3.28;;
57635;SDS011;43465;50.728;4.160;2023-11-18T03:05:19;12.77;;;3.63;;
57635;SDS011;43465;50.728;4.160;2023-11-18T03:07:45;10.27;;;3.38;;
57635;SDS011;43465;50.728;4.160;2023-11-18T03:10:19;13.40;;;3.67;;
57635;SDS011;43465;50.728;4.160;2023-11-18T03:12:48;11.20;;;3.40;;
57635;SDS011;43465;50.728;4.160;2023-11-18T03:15:14;8.07;;;2.95;;
57635;SDS011;43465;50.728;4.160;2023-11-18T03:17:44;10.73;;;3.00;;
57635;SDS011;43465;50.728;4.160;2023-11-18T03:20:15;10.50;;;3.40;;
57635;SDS011;43465;50.728;4.160;2023-11-18T03:22:44;8.27;;;3.22;;
57635;SDS011;43465;50.728;4.160;2023-11-18T03:25:11;16.52;;;3.08;;
57635;SDS011;43465;50.728;4.160;2023-11-18T03:27:38;10.20;;;3.33;;
57635;SDS011;43465;50.728;4.160;2023-11-18T03:30:05;8.15;;;2.55;;
57635;SDS011;43465;50.728;4.160;2023-11-18T03:32:32;20.92;;;3.40;;
57635;SDS011;43465;50.728;4.160;2023-11-18T03:34:58;10.93;;;2.38;;
57635;SDS011;43465;50.728;4.160;2023-11-18T03:37:26;11.88;;;3.65;;
57635;SDS011;43465;50.728;4.160;2023-11-18T03:39:52;11.90;;;3.30;;
57635;SDS011;43465;50.728;4.160;2023-11-18T03:42:18;11.07;;;2.90;;
57635;SDS011;43465;50.728;4.160;2023-11-18T03:44:44;9.20;;;2.58;;
57635;SDS011;43465;50.728;4.160;2023-11-18T03:47:12;11.90;;;2.75;;
57635;SDS011;43465;50.728;4.160;2023-11-18T03:49:39;8.60;;;2.70;;
57635;SDS011;43465;50.728;4.160;2023-11-18T03:52:05;14.23;;;2.80;;
57635;SDS011;43465;50.728;4.160;2023-11-18T03:54:31;12.35;;;2.72;;
57635;SDS011;43465;50.728;4.160;2023-11-18T03:56:56;13.68;;;2.90;;
57635;SDS011;43465;50.728;4.160;2023-11-18T03:59:22;7.68;;;2.92;;
57635;SDS011;43465;50.728;4.160;2023-11-18T04:01:48;15.07;;;3.17;;
57635;SDS011;43465;50.728;4.160;2023-11-18T04:04:15;14.57;;;2.85;;
57635;SDS011;43465;50.728;4.160;2023-11-18T04:06:41;12.23;;;2.65;;
57635;SDS011;43465;50.728;4.160;2023-11-18T04:09:07;12.82;;;2.45;;
57635;SDS011;43465;50.728;4.160;2023-11-18T04:11:34;7.45;;;2.75;;
57635;SDS011;43465;50.728;4.160;2023-11-18T04:14:00;8.25;;;2.30;;
57635;SDS011;43465;50.728;4.160;2023-11-18T04:16:28;10.43;;;2.42;;
57635;SDS011;43465;50.728;4.160;2023-11-18T04:18:54;7.57;;;2.17;;
57635;SDS011;43465;50.728;4.160;2023-11-18T04:21:19;10.65;;;2.78;;
57635;SDS011;43465;50.728;4.160;2023-11-18T04:23:45;12.00;;;2.55;;
57635;SDS011;43465;50.728;4.160;2023-11-18T04:26:11;10.65;;;2.60;;
57635;SDS011;43465;50.728;4.160;2023-11-18T04:28:37;11.23;;;2.50;;
57635;SDS011;43465;50.728;4.160;2023-11-18T04:31:03;11.18;;;2.83;;
57635;SDS011;43465;50.728;4.160;2023-11-18T04:33:30;11.05;;;2.85;;
57635;SDS011;43465;50.728;4.160;2023-11-18T04:35:56;11.02;;;2.70;;
57635;SDS011;43465;50.728;4.160;2023-11-18T04:38:22;8.55;;;2.40;;
57635;SDS011;43465;50.728;4.160;2023-11-18T04:40:48;9.50;;;2.50;;
57635;SDS011;43465;50.728;4.160;2023-11-18T04:43:14;12.25;;;2.50;;
57635;SDS011;43465;50.728;4.160;2023-11-18T04:45:41;6.50;;;2.13;;
57635;SDS011;43465;50.728;4.160;2023-11-18T04:48:07;6.13;;;2.20;;
57635;SDS011;43465;50.728;4.160;2023-11-18T04:50:33;10.85;;;2.30;;
57635;SDS011;43465;50.728;4.160;2023-11-18T04:52:59;9.93;;;2.60;;
57635;SDS011;43465;50.728;4.160;2023-11-18T04:55:25;11.15;;;2.30;;
57635;SDS011;43465;50.728;4.160;2023-11-18T04:57:54;8.10;;;2.55;;
57635;SDS011;43465;50.728;4.160;2023-11-18T05:00:20;13.85;;;2.38;;
57635;SDS011;43465;50.728;4.160;2023-11-18T05:02:46;11.43;;;2.45;;
57635;SDS011;43465;50.728;4.160;2023-11-18T05:05:13;9.57;;;2.30;;
57635;SDS011;43465;50.728;4.160;2023-11-18T05:07:40;11.40;;;2.10;;
57635;SDS011;43465;50.728;4.160;2023-11-18T05:10:06;7.53;;;2.35;;
57635;SDS011;43465;50.728;4.160;2023-11-18T05:12:35;11.82;;;2.67;;
57635;SDS011;43465;50.728;4.160;2023-11-18T05:15:02;8.70;;;2.15;;
57635;SDS011;43465;50.728;4.160;2023-11-18T05:17:29;7.53;;;2.20;;
57635;SDS011;43465;50.728;4.160;2023-11-18T05:19:55;10.32;;;2.10;;
57635;SDS011;43465;50.728;4.160;2023-11-18T05:22:21;8.55;;;2.35;;
57635;SDS011;43465;50.728;4.160;2023-11-18T05:24:47;10.93;;;2.03;;
57635;SDS011;43465;50.728;4.160;2023-11-18T05:27:13;11.63;;;2.40;;
57635;SDS011;43465;50.728;4.160;2023-11-18T05:29:40;11.10;;;2.58;;
57635;SDS011;43465;50.728;4.160;2023-11-18T05:32:07;5.18;;;1.90;;
57635;SDS011;43465;50.728;4.160;2023-11-18T05:34:33;5.68;;;1.92;;
57635;SDS011;43465;50.728;4.160;2023-11-18T05:37:00;10.27;;;2.58;;
57635;SDS011;43465;50.728;4.160;2023-11-18T05:39:26;7.68;;;1.90;;
57635;SDS011;43465;50.728;4.160;2023-11-18T05:41:55;9.88;;;2.03;;
57635;SDS011;43465;50.728;4.160;2023-11-18T05:44:24;8.95;;;3.03;;
57635;SDS011;43465;50.728;4.160;2023-11-18T05:46:58;12.05;;;2.70;;
57635;SDS011;43465;50.728;4.160;2023-11-18T05:49:24;10.73;;;2.72;;
57635;SDS011;43465;50.728;4.160;2023-11-18T05:51:50;10.70;;;2.20;;
57635;SDS011;43465;50.728;4.160;2023-11-18T05:54:17;7.40;;;2.28;;
57635;SDS011;43465;50.728;4.160;2023-11-18T05:56:42;12.20;;;3.20;;
57635;SDS011;43465;50.728;4.160;2023-11-18T05:59:08;9.95;;;2.20;;
57635;SDS011;43465;50.728;4.160;2023-11-18T06:01:36;12.25;;;2.25;;
57635;SDS011;43465;50.728;4.160;2023-11-18T06:04:02;11.65;;;2.38;;
57635;SDS011;43465;50.728;4.160;2023-11-18T06:06:28;8.43;;;2.40;;
57635;SDS011;43465;50.728;4.160;2023-11-18T06:08:57;9.70;;;3.20;;
57635;SDS011;43465;50.728;4.160;2023-11-18T06:11:29;7.00;;;2.95;;
57635;SDS011;43465;50.728;4.160;2023-11-18T06:13:56;13.30;;;3.33;;
57635;SDS011;43465;50.728;4.160;2023-11-18T06:16:23;12.23;;;2.92;;
57635;SDS011;43465;50.728;4.160;2023-11-18T06:18:50;9.93;;;2.65;;
57635;SDS011;43465;50.728;4.160;2023-11-18T06:21:18;12.40;;;2.70;;
57635;SDS011;43465;50.728;4.160;2023-11-18T06:23:46;12.30;;;4.30;;
57635;SDS011;43465;50.728;4.160;2023-11-18T06:26:12;9.35;;;4.32;;
57635;SDS011;43465;50.728;4.160;2023-11-18T06:28:40;14.77;;;4.60;;
57635;SDS011;43465;50.728;4.160;2023-11-18T06:31:06;10.55;;;4.35;;
57635;SDS011;43465;50.728;4.160;2023-11-18T06:33:39;12.80;;;4.68;;
57635;SDS011;43465;50.728;4.160;2023-11-18T06:38:44;13.33;;;3.20;;
57635;SDS011;43465;50.728;4.160;2023-11-18T06:41:12;10.00;;;3.80;;
57635;SDS011;43465;50.728;4.160;2023-11-18T06:43:41;10.15;;;3.80;;
57635;SDS011;43465;50.728;4.160;2023-11-18T06:46:22;16.30;;;3.50;;
57635;SDS011;43465;50.728;4.160;2023-11-18T06:48:48;11.60;;;3.70;;
57635;SDS011;43465;50.728;4.160;2023-11-18T06:51:14;12.70;;;3.25;;
57635;SDS011;43465;50.728;4.160;2023-11-18T06:53:41;10.35;;;3.42;;
57635;SDS011;43465;50.728;4.160;2023-11-18T06:56:08;13.50;;;3.92;;
57635;SDS011;43465;50.728;4.160;2023-11-18T06:58:36;12.15;;;3.40;;
57635;SDS011;43465;50.728;4.160;2023-11-18T07:01:03;12.50;;;3.90;;
57635;SDS011;43465;50.728;4.160;2023-11-18T07:03:30;8.93;;;3.55;;
57635;SDS011;43465;50.728;4.160;2023-11-18T07:05:56;11.13;;;3.95;;
57635;SDS011;43465;50.728;4.160;2023-11-18T07:08:22;14.02;;;4.28;;
57635;SDS011;43465;50.728;4.160;2023-11-18T07:10:49;10.07;;;4.22;;
57635;SDS011;43465;50.728;4.160;2023-11-18T07:13:15;10.70;;;4.15;;
57635;SDS011;43465;50.728;4.160;2023-11-18T07:15:41;8.50;;;3.83;;
57635;SDS011;43465;50.728;4.160;2023-11-18T07:18:07;12.18;;;4.45;;
57635;SDS011;43465;50.728;4.160;2023-11-18T07:20:34;17.77;;;4.78;;
57635;SDS011;43465;50.728;4.160;2023-11-18T07:23:00;12.82;;;4.78;;
57635;SDS011;43465;50.728;4.160;2023-11-18T07:25:25;13.10;;;4.90;;
57635;SDS011;43465;50.728;4.160;2023-11-18T07:27:51;11.80;;;5.45;;
57635;SDS011;43465;50.728;4.160;2023-11-18T07:30:16;19.25;;;5.60;;
57635;SDS011;43465;50.728;4.160;2023-11-18T07:32:43;13.98;;;5.25;;
57635;SDS011;43465;50.728;4.160;2023-11-18T07:35:09;16.23;;;6.10;;
57635;SDS011;43465;50.728;4.160;2023-11-18T07:37:35;11.88;;;5.75;;
57635;SDS011;43465;50.728;4.160;2023-11-18T07:40:02;15.05;;;6.05;;
57635;SDS011;43465;50.728;4.160;2023-11-18T07:42:30;13.95;;;6.25;;
57635;SDS011;43465;50.728;4.160;2023-11-18T07:44:59;13.13;;;6.45;;
57635;SDS011;43465;50.728;4.160;2023-11-18T07:47:28;15.20;;;6.15;;
57635;SDS011;43465;50.728;4.160;2023-11-18T07:49:56;16.40;;;6.85;;
57635;SDS011;43465;50.728;4.160;2023-11-18T07:52:24;16.38;;;5.95;;
57635;SDS011;43465;50.728;4.160;2023-11-18T07:54:52;13.55;;;5.60;;
57635;SDS011;43465;50.728;4.160;2023-11-18T07:57:18;14.90;;;5.95;;
57635;SDS011;43465;50.728;4.160;2023-11-18T07:59:43;9.68;;;5.72;;
57635;SDS011;43465;50.728;4.160;2023-11-18T08:02:09;9.48;;;5.65;;
57635;SDS011;43465;50.728;4.160;2023-11-18T08:04:35;10.98;;;6.25;;
57635;SDS011;43465;50.728;4.160;2023-11-18T08:07:02;13.00;;;5.43;;
57635;SDS011;43465;50.728;4.160;2023-11-18T08:09:29;9.35;;;5.80;;
57635;SDS011;43465;50.728;4.160;2023-11-18T08:11:56;12.70;;;5.88;;
57635;SDS011;43465;50.728;4.160;2023-11-18T08:14:23;13.55;;;5.85;;
57635;SDS011;43465;50.728;4.160;2023-11-18T08:16:49;16.50;;;6.43;;
57635;SDS011;43465;50.728;4.160;2023-11-18T08:19:16;12.30;;;6.55;;
57635;SDS011;43465;50.728;4.160;2023-11-18T08:21:42;11.35;;;6.55;;
57635;SDS011;43465;50.728;4.160;2023-11-18T08:24:08;12.52;;;6.78;;
57635;SDS011;43465;50.728;4.160;2023-11-18T08:26:34;11.77;;;6.60;;
57635;SDS011;43465;50.728;4.160;2023-11-18T08:29:00;10.82;;;6.55;;
57635;SDS011;43465;50.728;4.160;2023-11-18T08:31:26;14.32;;;7.13;;
57635;SDS011;43465;50.728;4.160;2023-11-18T08:33:52;13.20;;;6.93;;
57635;SDS011;43465;50.728;4.160;2023-11-18T08:36:19;12.10;;;6.68;;
57635;SDS011;43465;50.728;4.160;2023-11-18T08:38:47;13.27;;;7.13;;
57635;SDS011;43465;50.728;4.160;2023-11-18T08:41:14;11.15;;;6.88;;
57635;SDS011;43465;50.728;4.160;2023-11-18T08:43:40;14.68;;;6.10;;
57635;SDS011;43465;50.728;4.160;2023-11-18T08:46:06;11.45;;;6.13;;
57635;SDS011;43465;50.728;4.160;2023-11-18T08:48:32;13.68;;;6.40;;
57635;SDS011;43465;50.728;4.160;2023-11-18T08:51:01;10.40;;;6.28;;
57635;SDS011;43465;50.728;4.160;2023-11-18T08:53:26;12.77;;;6.50;;
57635;SDS011;43465;50.728;4.160;2023-11-18T08:55:52;9.98;;;6.13;;
57635;SDS011;43465;50.728;4.160;2023-11-18T08:58:21;10.05;;;5.60;;
57635;SDS011;43465;50.728;4.160;2023-11-18T09:00:51;13.60;;;5.72;;
57635;SDS011;43465;50.728;4.160;2023-11-18T09:03:19;9.43;;;5.38;;
57635;SDS011;43465;50.728;4.160;2023-11-18T09:05:59;10.63;;;5.82;;
57635;SDS011;43465;50.728;4.160;2023-11-18T09:08:38;11.55;;;5.95;;
57635;SDS011;43465;50.728;4.160;2023-11-18T09:11:04;10.38;;;5.78;;
57635;SDS011;43465;50.728;4.160;2023-11-18T09:13:31;12.63;;;6.10;;
57635;SDS011;43465;50.728;4.160;2023-11-18T09:16:00;10.77;;;5.88;;
57635;SDS011;43465;50.728;4.160;2023-11-18T09:18:33;9.57;;;5.65;;
57635;SDS011;43465;50.728;4.160;2023-11-18T09:21:00;10.35;;;6.25;;
57635;SDS011;43465;50.728;4.160;2023-11-18T09:23:26;13.27;;;6.70;;
57635;SDS011;43465;50.728;4.160;2023-11-18T09:25:53;10.05;;;5.75;;
57635;SDS011;43465;50.728;4.160;2023-11-18T09:28:20;9.90;;;5.88;;
57635;SDS011;43465;50.728;4.160;2023-11-18T09:30:49;7.50;;;5.40;;
57635;SDS011;43465;50.728;4.160;2023-11-18T09:33:19;9.82;;;5.82;;
57635;SDS011;43465;50.728;4.160;2023-11-18T09:35:57;10.50;;;5.97;;
57635;SDS011;43465;50.728;4.160;2023-11-18T09:40:53;7.57;;;5.40;;
57635;SDS011;43465;50.728;4.160;2023-11-18T09:43:19;9.27;;;5.28;;
57635;SDS011;43465;50.728;4.160;2023-11-18T09:45:47;13.30;;;5.85;;
57635;SDS011;43465;50.728;4.160;2023-11-18T09:48:15;10.07;;;6.20;;
57635;SDS011;43465;50.728;4.160;2023-11-18T09:50:46;11.35;;;6.30;;
57635;SDS011;43465;50.728;4.160;2023-11-18T09:53:15;7.93;;;5.40;;
57635;SDS011;43465;50.728;4.160;2023-11-18T09:55:49;10.27;;;4.97;;
57635;SDS011;43465;50.728;4.160;2023-11-18T09:58:20;10.52;;;5.43;;
57635;SDS011;43465;50.728;4.160;2023-11-18T10:00:49;9.98;;;5.32;;
57635;SDS011;43465;50.728;4.160;2023-11-18T10:03:21;10.50;;;5.55;;
57635;SDS011;43465;50.728;4.160;2023-11-18T10:05:47;9.43;;;5.28;;
57635;SDS011;43465;50.728;4.160;2023-11-18T10:08:19;8.57;;;4.82;;
57635;SDS011;43465;50.728;4.160;2023-11-18T10:10:50;12.77;;;5.10;;
57635;SDS011;43465;50.728;4.160;2023-11-18T10:13:25;6.63;;;4.50;;
57635;SDS011;43465;50.728;4.160;2023-11-18T10:15:50;7.63;;;4.80;;
57635;SDS011;43465;50.728;4.160;2023-11-18T10:18:17;8.82;;;4.90;;
57635;SDS011;43465;50.728;4.160;2023-11-18T10:20:53;5.15;;;4.43;;
57635;SDS011;43465;50.728;4.160;2023-11-18T10:23:20;7.43;;;4.40;;
57635;SDS011;43465;50.728;4.160;2023-11-18T10:25:54;5.38;;;3.95;;
57635;SDS011;43465;50.728;4.160;2023-11-18T10:28:26;4.20;;;3.45;;
57635;SDS011;43465;50.728;4.160;2023-11-18T10:30:56;5.65;;;3.70;;
57635;SDS011;43465;50.728;4.160;2023-11-18T10:33:24;4.13;;;3.63;;
57635;SDS011;43465;50.728;4.160;2023-11-18T10:35:55;4.65;;;3.33;;
57635;SDS011;43465;50.728;4.160;2023-11-18T10:38:22;6.95;;;3.60;;
57635;SDS011;43465;50.728;4.160;2023-11-18T10:40:55;6.47;;;3.03;;
57635;SDS011;43465;50.728;4.160;2023-11-18T10:43:23;5.40;;;3.22;;
57635;SDS011;43465;50.728;4.160;2023-11-18T10:46:08;6.90;;;2.90;;
57635;SDS011;43465;50.728;4.160;2023-11-18T10:48:47;5.35;;;2.78;;
57635;SDS011;43465;50.728;4.160;2023-11-18T10:51:20;3.03;;;2.60;;
57635;SDS011;43465;50.728;4.160;2023-11-18T10:53:49;4.32;;;2.47;;
57635;SDS011;43465;50.728;4.160;2023-11-18T10:56:29;7.57;;;2.55;;
57635;SDS011;43465;50.728;4.160;2023-11-18T11:01:32;3.85;;;2.40;;
57635;SDS011;43465;50.728;4.160;2023-11-18T11:04:09;3.47;;;2.53;;
57635;SDS011;43465;50.728;4.160;2023-11-18T11:06:35;6.10;;;2.17;;
57635;SDS011;43465;50.728;4.160;2023-11-18T11:09:06;4.20;;;2.05;;
57635;SDS011;43465;50.728;4.160;2023-11-18T11:11:45;2.60;;;1.60;;
57635;SDS011;43465;50.728;4.160;2023-11-18T11:14:16;2.42;;;1.92;;
57635;SDS011;43465;50.728;4.160;2023-11-18T11:16:47;2.05;;;1.70;;
57635;SDS011;43465;50.728;4.160;2023-11-18T11:19:26;4.00;;;1.90;;
57635;SDS011;43465;50.728;4.160;2023-11-18T11:22:09;2.75;;;1.60;;
57635;SDS011;43465;50.728;4.160;2023-11-18T11:27:54;2.90;;;1.55;;
57635;SDS011;43465;50.728;4.160;2023-11-18T11:30:33;2.03;;;1.50;;
57635;SDS011;43465;50.728;4.160;2023-11-18T11:36:17;2.10;;;1.58;;
57635;SDS011;43465;50.728;4.160;2023-11-18T11:38:50;1.85;;;1.45;;
57635;SDS011;43465;50.728;4.160;2023-11-18T11:41:17;2.35;;;1.48;;
57635;SDS011;43465;50.728;4.160;2023-11-18T11:43:51;1.20;;;1.10;;
57635;SDS011;43465;50.728;4.160;2023-11-18T11:46:23;2.67;;;1.20;;
57635;SDS011;43465;50.728;4.160;2023-11-18T11:48:52;1.20;;;1.20;;
57635;SDS011;43465;50.728;4.160;2023-11-18T11:51:36;1.30;;;1.20;;
57635;SDS011;43465;50.728;4.160;2023-11-18T11:54:11;1.45;;;1.13;;
57635;SDS011;43465;50.728;4.160;2023-11-18T11:56:44;1.63;;;1.30;;
57635;SDS011;43465;50.728;4.160;2023-11-18T11:59:12;0.90;;;0.90;;
57635;SDS011;43465;50.728;4.160;2023-11-18T12:01:41;1.60;;;1.17;;
57635;SDS011;43465;50.728;4.160;2023-11-18T12:04:11;1.48;;;1.17;;
57635;SDS011;43465;50.728;4.160;2023-11-18T12:06:46;1.42;;;1.00;;
57635;SDS011;43465;50.728;4.160;2023-11-18T12:09:16;2.40;;;1.17;;
57635;SDS011;43465;50.728;4.160;2023-11-18T12:11:45;1.60;;;0.98;;
57635;SDS011;43465;50.728;4.160;2023-11-18T12:14:13;1.80;;;1.20;;
57635;SDS011;43465;50.728;4.160;2023-11-18T12:19:34;1.08;;;1.08;;
57635;SDS011;43465;50.728;4.160;2023-11-18T12:22:09;1.33;;;1.10;;
57635;SDS011;43465;50.728;4.160;2023-11-18T12:24:42;1.40;;;0.98;;
57635;SDS011;43465;50.728;4.160;2023-11-18T12:27:41;1.30;;;1.20;;
57635;SDS011;43465;50.728;4.160;2023-11-18T12:41:10;1.27;;;1.17;;
57635;SDS011;43465;50.728;4.160;2023-11-18T12:44:00;1.00;;;1.00;;
57635;SDS011;43465;50.728;4.160;2023-11-18T12:49:36;1.00;;;1.00;;
57635;SDS011;43465;50.728;4.160;2023-11-18T12:52:06;1.10;;;1.05;;
57635;SDS011;43465;50.728;4.160;2023-11-18T12:54:34;1.02;;;0.90;;
57635;SDS011;43465;50.728;4.160;2023-11-18T12:57:03;2.08;;;0.88;;
57635;SDS011;43465;50.728;4.160;2023-11-18T12:59:32;0.90;;;0.90;;
57635;SDS011;43465;50.728;4.160;2023-11-18T13:01:59;2.13;;;0.90;;
57635;SDS011;43465;50.728;4.160;2023-11-18T13:04:29;0.88;;;0.88;;
57635;SDS011;43465;50.728;4.160;2023-11-18T13:06:59;1.50;;;0.90;;
57635;SDS011;43465;50.728;4.160;2023-11-18T13:09:25;1.20;;;1.10;;
57635;SDS011;43465;50.728;4.160;2023-11-18T13:11:56;1.77;;;1.08;;
57635;SDS011;43465;50.728;4.160;2023-11-18T13:14:26;1.27;;;0.88;;
57635;SDS011;43465;50.728;4.160;2023-11-18T13:16:55;1.00;;;1.00;;
57635;SDS011;43465;50.728;4.160;2023-11-18T13:19:27;0.90;;;0.90;;
57635;SDS011;43465;50.728;4.160;2023-11-18T13:24:24;0.85;;;0.80;;
57635;SDS011;43465;50.728;4.160;2023-11-18T13:26:56;1.45;;;1.00;;
57635;SDS011;43465;50.728;4.160;2023-11-18T13:29:22;1.25;;;0.90;;
57635;SDS011;43465;50.728;4.160;2023-11-18T13:31:49;1.10;;;1.00;;
57635;SDS011;43465;50.728;4.160;2023-11-18T13:34:16;1.02;;;1.00;;
57635;SDS011;43465;50.728;4.160;2023-11-18T13:36:49;1.17;;;1.10;;
57635;SDS011;43465;50.728;4.160;2023-11-18T13:39:16;0.95;;;0.80;;
57635;SDS011;43465;50.728;4.160;2023-11-18T13:41:43;0.80;;;0.80;;
57635;SDS011;43465;50.728;4.160;2023-11-18T13:44:10;1.20;;;0.80;;
57635;SDS011;43465;50.728;4.160;2023-11-18T13:46:38;1.00;;;1.00;;
57635;SDS011;43465;50.728;4.160;2023-11-18T13:49:06;0.80;;;0.80;;
57635;SDS011;43465;50.728;4.160;2023-11-18T13:51:33;0.90;;;0.90;;
57635;SDS011;43465;50.728;4.160;2023-11-18T13:54:00;0.70;;;0.70;;
57635;SDS011;43465;50.728;4.160;2023-11-18T13:56:27;1.67;;;1.27;;
57635;SDS011;43465;50.728;4.160;2023-11-18T13:58:53;1.13;;;1.02;;
57635;SDS011;43465;50.728;4.160;2023-11-18T14:01:19;1.00;;;1.00;;
57635;SDS011;43465;50.728;4.160;2023-11-18T14:03:46;1.55;;;0.80;;
57635;SDS011;43465;50.728;4.160;2023-11-18T14:06:13;1.02;;;0.80;;
57635;SDS011;43465;50.728;4.160;2023-11-18T14:08:42;1.00;;;1.00;;
57635;SDS011;43465;50.728;4.160;2023-11-18T14:11:09;0.73;;;0.73;;
57635;SDS011;43465;50.728;4.160;2023-11-18T14:13:35;1.15;;;0.93;;
57635;SDS011;43465;50.728;4.160;2023-11-18T14:16:02;0.82;;;0.82;;
57635;SDS011;43465;50.728;4.160;2023-11-18T14:18:29;0.80;;;0.80;;
57635;SDS011;43465;50.728;4.160;2023-11-18T14:20:54;1.77;;;1.00;;
57635;SDS011;43465;50.728;4.160;2023-11-18T14:23:20;0.95;;;0.95;;
57635;SDS011;43465;50.728;4.160;2023-11-18T14:25:47;1.05;;;0.90;;
57635;SDS011;43465;50.728;4.160;2023-11-18T14:28:13;1.15;;;1.05;;
57635;SDS011;43465;50.728;4.160;2023-11-18T14:30:39;0.88;;;0.88;;
57635;SDS011;43465;50.728;4.160;2023-11-18T14:33:05;1.30;;;0.70;;
57635;SDS011;43465;50.728;4.160;2023-11-18T14:35:32;0.90;;;0.90;;
57635;SDS011;43465;50.728;4.160;2023-11-18T14:37:59;1.25;;;0.90;;
57635;SDS011;43465;50.728;4.160;2023-11-18T14:40:26;1.00;;;1.00;;
57635;SDS011;43465;50.728;4.160;2023-11-18T14:42:53;1.67;;;0.90;;
57635;SDS011;43465;50.728;4.160;2023-11-18T14:45:19;0.90;;;0.90;;
57635;SDS011;43465;50.728;4.160;2023-11-18T14:47:45;1.40;;;0.88;;
57635;SDS011;43465;50.728;4.160;2023-11-18T14:50:12;0.90;;;0.90;;
57635;SDS011;43465;50.728;4.160;2023-11-18T14:52:46;1.00;;;0.90;;
57635;SDS011;43465;50.728;4.160;2023-11-18T14:55:27;1.33;;;1.27;;
57635;SDS011;43465;50.728;4.160;2023-11-18T14:57:53;1.55;;;1.45;;
57635;SDS011;43465;50.728;4.160;2023-11-18T15:00:20;1.80;;;1.70;;
57635;SDS011;43465;50.728;4.160;2023-11-18T15:02:52;1.80;;;1.70;;
57635;SDS011;43465;50.728;4.160;2023-11-18T15:05:18;4.32;;;2.60;;
57635;SDS011;43465;50.728;4.160;2023-11-18T15:07:48;4.05;;;2.38;;
57635;SDS011;43465;50.728;4.160;2023-11-18T15:10:23;2.95;;;2.10;;
57635;SDS011;43465;50.728;4.160;2023-11-18T15:12:51;2.35;;;2.05;;
57635;SDS011;43465;50.728;4.160;2023-11-18T15:15:22;2.03;;;1.67;;
57635;SDS011;43465;50.728;4.160;2023-11-18T15:17:56;2.72;;;2.20;;
57635;SDS011;43465;50.728;4.160;2023-11-18T15:20:22;6.13;;;2.53;;